Lady Elliot Island, Australia
Current Conditions -  °F | °C
As of 4:00 PM on Sunday 23 Nov 2014 (Local Time) from YBUD Reporting Station
Clear Clear  
Wind Chill: 84°   Ceiling: Unl
Heat Index: 84°   Visibility: 6mi
Dew Point: 61°   Wind: 13mph
Humidity: 45%   Direction: 50°NE
Pressure: 29.97"   Gusts: NA
Location:  24.1°S, 152.7°E
Report Text: YBUD 230600Z AUTO 05011KT 9999 // NCD 29/16 Q1015
Loading
Personal Weather Stations






























Interactive Weather Map New forecast layout! Learn more

10-Day Weather Forecast

Advertisements
Track Severe Weather on mobile